createdAt,value
2023-02-14T00:02:26.991Z,6.05
2023-02-14T00:04:57.746Z,6.00
2023-02-14T00:07:28.567Z,5.70
2023-02-14T00:09:59.115Z,5.58
2023-02-14T00:12:29.631Z,5.80
2023-02-14T00:15:18.198Z,5.87
2023-02-14T00:17:48.805Z,5.37
2023-02-14T00:20:19.710Z,5.95
2023-02-14T00:22:50.629Z,5.90
2023-02-14T00:25:21.100Z,5.20
2023-02-14T00:27:51.691Z,5.85
2023-02-14T00:30:22.224Z,6.03
2023-02-14T00:32:52.987Z,6.12
2023-02-14T00:35:24.559Z,5.67
2023-02-14T00:37:55.338Z,5.80
2023-02-14T00:40:25.969Z,5.28
2023-02-14T00:42:57.474Z,5.45
2023-02-14T00:45:28.037Z,5.30
2023-02-14T00:47:58.598Z,5.30
2023-02-14T00:50:29.193Z,5.35
2023-02-14T00:52:59.639Z,5.53
2023-02-14T00:55:30.230Z,5.47
2023-02-14T00:58:00.770Z,5.15
2023-02-14T01:00:31.419Z,4.95
2023-02-14T01:03:02.041Z,5.08
2023-02-14T01:05:32.712Z,5.33
2023-02-14T01:08:03.203Z,5.28
2023-02-14T01:10:34.013Z,5.33
2023-02-14T01:13:05.745Z,5.10
2023-02-14T01:15:41.881Z,5.10
2023-02-14T01:18:12.740Z,5.30
2023-02-14T01:20:43.337Z,5.75
2023-02-14T01:23:14.047Z,5.78
2023-02-14T01:25:44.657Z,5.83
2023-02-14T01:28:15.142Z,5.80
2023-02-14T01:30:45.695Z,5.28
2023-02-14T01:33:16.144Z,5.72
2023-02-14T01:35:46.637Z,5.40
2023-02-14T01:38:17.202Z,5.00
2023-02-14T01:40:47.703Z,5.83
2023-02-14T01:43:18.208Z,5.33
2023-02-14T01:45:50.035Z,5.83
2023-02-14T01:48:23.194Z,5.30
2023-02-14T01:50:55.761Z,5.45
2023-02-14T01:53:29.096Z,5.22
2023-02-14T01:56:02.498Z,5.87
2023-02-14T01:58:36.619Z,5.53
2023-02-14T02:01:07.343Z,5.75
2023-02-14T02:03:41.631Z,5.40
2023-02-14T02:06:18.342Z,5.43
2023-02-14T02:08:51.688Z,5.85
2023-02-14T02:11:23.415Z,3.97
2023-02-14T02:13:54.079Z,5.30
2023-02-14T02:16:33.481Z,5.22
2023-02-14T02:19:08.108Z,5.50
2023-02-14T02:22:04.418Z,5.75
2023-02-14T02:24:51.229Z,5.60
2023-02-14T02:27:30.565Z,6.20
2023-02-14T02:30:06.601Z,5.15
2023-02-14T02:32:56.840Z,4.92
2023-02-14T02:35:53.039Z,5.00
2023-02-14T02:41:18.128Z,5.72
2023-02-14T02:43:57.737Z,5.50
2023-02-14T02:46:49.399Z,5.35
2023-02-14T02:49:52.229Z,5.45
2023-02-14T02:52:52.791Z,5.40
2023-02-14T02:55:26.630Z,5.58
2023-02-14T02:57:58.216Z,5.58
2023-02-14T03:00:29.107Z,5.80
2023-02-14T03:03:18.615Z,5.47
2023-02-14T03:05:50.503Z,5.53
2023-02-14T03:08:21.059Z,5.25
2023-02-14T03:10:53.163Z,5.40
2023-02-14T03:13:26.938Z,5.37
2023-02-14T03:16:09.171Z,5.28
2023-02-14T03:19:06.659Z,5.28
2023-02-14T03:21:40.081Z,5.20
2023-02-14T03:24:31.163Z,5.60
2023-02-14T03:27:19.894Z,5.47
2023-02-14T03:29:59.128Z,5.15
2023-02-14T03:32:50.669Z,5.55
2023-02-14T03:35:33.111Z,5.25
2023-02-14T03:38:12.499Z,5.58
2023-02-14T03:41:05.825Z,5.42
2023-02-14T03:43:51.173Z,4.78
2023-02-14T03:46:27.383Z,5.53
2023-02-14T03:49:01.323Z,4.97
2023-02-14T03:51:34.722Z,4.95
2023-02-14T03:54:09.366Z,4.60
2023-02-14T03:56:48.668Z,5.35
2023-02-14T03:59:25.245Z,5.30
2023-02-14T04:02:13.684Z,5.00
2023-02-14T04:04:47.343Z,5.05
2023-02-14T04:07:20.843Z,4.90
2023-02-14T04:09:51.972Z,4.95
2023-02-14T04:12:36.889Z,5.08
2023-02-14T04:14:54.789Z,4.92
2023-02-14T04:17:43.353Z,4.55
2023-02-14T04:20:14.384Z,4.58
2023-02-14T04:22:46.518Z,4.85
2023-02-14T04:25:17.499Z,4.65
2023-02-14T04:27:48.000Z,4.60
2023-02-14T04:30:21.856Z,5.00
2023-02-14T04:32:52.347Z,4.80
2023-02-14T04:35:22.811Z,5.00
2023-02-14T04:37:53.400Z,4.78
2023-02-14T04:40:25.158Z,4.53
2023-02-14T04:42:55.692Z,4.67
2023-02-14T04:45:26.273Z,4.83
2023-02-14T04:47:56.756Z,4.72
2023-02-14T04:50:27.258Z,4.58
2023-02-14T04:52:57.738Z,4.62
2023-02-14T04:55:30.150Z,4.47
2023-02-14T04:58:00.792Z,4.62
2023-02-14T05:00:31.293Z,4.92
2023-02-14T05:03:01.919Z,4.72
2023-02-14T05:05:32.551Z,4.55
2023-02-14T05:08:03.030Z,4.87
2023-02-14T05:10:33.504Z,4.33
2023-02-14T05:13:05.166Z,4.42
2023-02-14T05:15:38.340Z,5.15
2023-02-14T05:18:07.956Z,5.72
2023-02-14T05:20:38.591Z,5.95
2023-02-14T05:23:10.781Z,6.35
2023-02-14T05:25:45.329Z,5.87
2023-02-14T05:28:15.787Z,6.35
2023-02-14T05:30:46.997Z,6.42
2023-02-14T05:33:17.656Z,6.12
2023-02-14T05:35:48.333Z,5.75
2023-02-14T05:38:19.391Z,5.87
2023-02-14T05:40:49.849Z,5.55
2023-02-14T05:43:20.375Z,5.60
2023-02-14T05:45:50.936Z,5.97
2023-02-14T05:48:21.734Z,6.30
2023-02-14T05:50:52.520Z,6.03
2023-02-14T05:53:23.143Z,6.00
2023-02-14T05:55:53.663Z,6.05
2023-02-14T05:58:24.286Z,5.55
2023-02-14T06:00:54.855Z,5.28
2023-02-14T06:03:25.426Z,6.10
2023-02-14T06:05:56.099Z,5.95
2023-02-14T06:08:26.613Z,5.90
2023-02-14T06:10:57.443Z,5.62
2023-02-14T06:13:29.315Z,5.58
2023-02-14T06:15:59.866Z,5.72
2023-02-14T06:18:30.360Z,6.22
2023-02-14T06:21:01.221Z,8.05
2023-02-14T06:23:32.354Z,7.60
2023-02-14T06:26:03.924Z,7.78
2023-02-14T06:28:34.604Z,7.15
2023-02-14T06:31:05.670Z,7.62
2023-02-14T06:33:36.534Z,7.12
2023-02-14T06:36:07.602Z,7.33
2023-02-14T06:38:38.129Z,6.45
2023-02-14T06:41:10.715Z,7.08
2023-02-14T06:43:41.373Z,6.45
2023-02-14T06:46:12.573Z,6.92
2023-02-14T06:48:43.202Z,6.28
2023-02-14T06:51:15.437Z,5.85
2023-02-14T06:53:45.907Z,6.33
2023-02-14T06:56:16.418Z,5.87
2023-02-14T06:58:46.917Z,6.47
2023-02-14T07:01:17.392Z,5.53
2023-02-14T07:03:49.175Z,6.10
2023-02-14T07:06:19.717Z,5.78
2023-02-14T07:08:50.298Z,6.53
2023-02-14T07:11:20.759Z,6.60
2023-02-14T07:13:51.359Z,6.85
2023-02-14T07:16:21.981Z,7.87
2023-02-14T07:18:53.156Z,7.28
2023-02-14T07:21:24.099Z,9.75
2023-02-14T07:23:54.712Z,7.50
2023-02-14T07:26:25.396Z,7.42
2023-02-14T07:28:55.985Z,6.60
2023-02-14T07:31:26.709Z,6.10
2023-02-14T07:34:01.493Z,6.47
2023-02-14T07:36:32.023Z,6.75
2023-02-14T07:39:02.715Z,6.67
2023-02-14T07:41:33.353Z,6.12
2023-02-14T07:44:03.988Z,6.28
2023-02-14T07:46:34.438Z,6.20
2023-02-14T07:49:05.537Z,6.28
2023-02-14T07:51:36.115Z,6.47
2023-02-14T07:54:08.163Z,6.47
2023-02-14T07:56:38.717Z,6.47
2023-02-14T07:59:09.503Z,7.55
2023-02-14T08:01:40.276Z,8.50
2023-02-14T08:04:12.766Z,8.88
2023-02-14T08:06:44.244Z,7.30
2023-02-14T08:09:16.374Z,7.05
2023-02-14T08:12:04.724Z,6.42
2023-02-14T08:14:36.136Z,7.10
2023-02-14T08:17:10.963Z,6.90
2023-02-14T08:19:42.428Z,7.33
2023-02-14T08:22:13.419Z,6.50
2023-02-14T08:24:45.233Z,7.00
2023-02-14T08:27:15.807Z,7.30
2023-02-14T08:29:46.395Z,6.97
2023-02-14T08:32:18.548Z,6.75
2023-02-14T08:34:50.320Z,7.90
2023-02-14T08:37:21.086Z,7.12
2023-02-14T08:39:51.573Z,7.03
2023-02-14T08:42:23.233Z,7.00
2023-02-14T08:44:54.906Z,7.35
2023-02-14T08:47:26.652Z,7.15
2023-02-14T08:49:57.243Z,7.60
2023-02-14T08:52:27.788Z,7.33
2023-02-14T08:54:58.385Z,7.22
2023-02-14T08:57:29.226Z,6.90
2023-02-14T09:00:00.434Z,7.15
2023-02-14T09:02:31.351Z,7.37
2023-02-14T09:05:01.946Z,7.47
2023-02-14T09:07:32.606Z,7.45
2023-02-14T09:10:03.293Z,6.53
2023-02-14T09:12:33.805Z,7.03
2023-02-14T09:15:05.399Z,7.62
2023-02-14T09:17:37.465Z,7.22
2023-02-14T09:20:12.420Z,6.80
2023-02-14T09:22:44.104Z,7.62
2023-02-14T09:25:15.145Z,8.78
2023-02-14T09:27:45.820Z,8.25
2023-02-14T09:30:17.627Z,8.28
2023-02-14T09:32:48.261Z,7.72
2023-02-14T09:35:25.379Z,7.65
2023-02-14T09:38:02.715Z,7.33
2023-02-14T09:40:34.666Z,7.95
2023-02-14T09:43:25.409Z,8.38
2023-02-14T09:45:59.098Z,8.68
2023-02-14T09:48:39.276Z,8.05
2023-02-14T09:51:17.062Z,7.72
2023-02-14T09:53:53.298Z,8.20
2023-02-14T09:56:31.050Z,8.55
2023-02-14T09:59:14.326Z,7.60
2023-02-14T10:01:47.894Z,8.05
2023-02-14T10:04:39.885Z,8.43
2023-02-14T10:07:19.713Z,8.40
2023-02-14T10:10:08.780Z,8.43
2023-02-14T10:13:03.372Z,7.90
2023-02-14T10:15:43.823Z,8.78
2023-02-14T10:18:17.402Z,10.18
2023-02-14T10:20:51.236Z,9.65
2023-02-14T10:23:25.573Z,9.53
2023-02-14T10:26:04.906Z,9.03
2023-02-14T10:28:47.725Z,8.65
2023-02-14T10:31:30.414Z,8.25
2023-02-14T10:34:18.822Z,8.58
2023-02-14T10:36:59.561Z,7.25
2023-02-14T10:39:48.461Z,7.28
2023-02-14T10:42:34.142Z,7.55
2023-02-14T10:45:30.376Z,9.23
2023-02-14T10:51:01.470Z,9.23
2023-02-14T10:53:51.642Z,9.20
2023-02-14T10:56:30.712Z,10.63
2023-02-14T10:59:04.176Z,9.35
2023-02-14T11:01:36.198Z,9.18
2023-02-14T11:04:09.837Z,9.88
2023-02-14T11:06:40.423Z,10.58
2023-02-14T11:09:12.618Z,9.90
2023-02-14T11:11:57.000Z,9.65
2023-02-14T11:14:30.455Z,9.58
2023-02-14T11:17:03.267Z,9.45
2023-02-14T11:19:37.482Z,9.35
2023-02-14T11:22:09.717Z,10.45
2023-02-14T11:24:46.152Z,9.75
2023-02-14T11:27:19.276Z,10.78
2023-02-14T11:29:53.119Z,10.45
2023-02-14T11:32:29.346Z,9.75
2023-02-14T11:35:09.218Z,9.43
2023-02-14T11:37:48.782Z,9.53
2023-02-14T11:40:34.886Z,10.28
2023-02-14T11:43:19.152Z,11.25
2023-02-14T11:45:52.394Z,11.10
2023-02-14T11:48:38.174Z,12.60
2023-02-14T11:51:06.314Z,12.30
2023-02-14T11:53:49.524Z,12.70
2023-02-14T11:56:22.206Z,11.33
2023-02-14T11:58:59.059Z,13.88
2023-02-14T12:01:40.173Z,13.43
2023-02-14T12:04:20.708Z,10.53
2023-02-14T12:06:51.556Z,9.68
2023-02-14T12:09:30.493Z,9.25
2023-02-14T12:12:06.655Z,8.93
2023-02-14T12:14:39.131Z,8.25
2023-02-14T12:17:13.418Z,8.70
2023-02-14T12:20:02.157Z,7.62
2023-02-14T12:22:35.721Z,7.25
2023-02-14T12:25:28.253Z,7.90
2023-02-14T12:28:08.634Z,8.78
2023-02-14T12:30:39.618Z,7.22
2023-02-14T12:33:19.537Z,8.30
2023-02-14T12:36:08.249Z,10.78
2023-02-14T12:38:53.765Z,9.75
2023-02-14T12:42:03.117Z,8.50
2023-02-14T12:44:48.338Z,8.05
2023-02-14T12:47:30.944Z,6.55
2023-02-14T12:50:21.121Z,7.92
2023-02-14T12:53:12.210Z,8.10
2023-02-14T12:55:51.518Z,7.90
2023-02-14T12:58:32.452Z,8.28
2023-02-14T13:01:28.375Z,7.90
2023-02-14T13:04:20.946Z,8.30
2023-02-14T13:07:00.224Z,7.12
2023-02-14T13:09:50.600Z,7.28
2023-02-14T13:12:39.348Z,7.12
2023-02-14T13:15:29.660Z,6.55
2023-02-14T13:18:03.284Z,6.40
2023-02-14T13:20:42.818Z,7.47
2023-02-14T13:23:25.250Z,8.33
2023-02-14T13:26:15.500Z,9.28
2023-02-14T13:29:13.369Z,7.15
2023-02-14T13:31:44.299Z,6.10
2023-02-14T13:34:37.097Z,10.38
2023-02-14T13:37:10.898Z,10.68
2023-02-14T13:39:47.248Z,11.53
2023-02-14T13:42:51.044Z,9.98
2023-02-14T13:45:37.988Z,8.85
2023-02-14T13:48:18.621Z,6.70
2023-02-14T13:51:01.333Z,6.95
2023-02-14T13:53:34.814Z,4.92
2023-02-14T13:56:08.256Z,5.37
2023-02-14T13:58:40.389Z,5.45
2023-02-14T14:01:37.206Z,6.15
2023-02-14T14:04:32.115Z,5.33
2023-02-14T14:07:08.921Z,5.28
2023-02-14T14:09:48.203Z,5.37
2023-02-14T14:12:31.965Z,6.55
2023-02-14T14:15:17.370Z,7.03
2023-02-14T14:17:50.740Z,6.05
2023-02-14T14:20:24.228Z,7.15
2023-02-14T14:23:00.663Z,7.17
2023-02-14T14:25:43.576Z,6.42
2023-02-14T14:28:22.899Z,6.55
2023-02-14T14:30:53.997Z,5.83
2023-02-14T14:33:33.879Z,5.95
2023-02-14T14:36:10.371Z,5.75
2023-02-14T14:38:54.702Z,5.12
2023-02-14T14:41:32.163Z,6.87
2023-02-14T14:44:03.290Z,6.42
2023-02-14T14:46:34.597Z,6.62
2023-02-14T14:49:06.047Z,6.40
2023-02-14T14:51:38.701Z,6.30
2023-02-14T14:54:19.385Z,6.25
2023-02-14T14:57:02.155Z,6.60
2023-02-14T14:59:36.141Z,8.00
2023-02-14T15:02:26.543Z,7.70
2023-02-14T15:04:57.490Z,7.00
2023-02-14T15:07:33.454Z,6.80
2023-02-14T15:10:04.474Z,7.08
2023-02-14T15:12:54.496Z,6.75
2023-02-14T15:15:26.322Z,6.42
2023-02-14T15:17:57.222Z,7.00
2023-02-14T15:20:28.003Z,6.58
2023-02-14T15:22:58.718Z,6.90
2023-02-14T15:25:32.196Z,7.95
2023-02-14T15:28:03.713Z,10.63
2023-02-14T15:30:38.303Z,10.80
2023-02-14T15:33:10.788Z,12.90
2023-02-14T15:35:44.096Z,13.68
2023-02-14T15:38:15.994Z,17.17
2023-02-14T15:40:47.260Z,16.62
2023-02-14T15:43:32.719Z,15.90
2023-02-14T15:46:23.205Z,13.58
2023-02-14T15:48:55.956Z,14.58
2023-02-14T15:51:32.529Z,14.95
2023-02-14T15:54:09.450Z,15.25
2023-02-14T15:56:46.159Z,16.45
2023-02-14T15:59:26.719Z,12.93
2023-02-14T16:02:00.170Z,19.17
2023-02-14T16:04:36.663Z,24.65
2023-02-14T16:07:15.949Z,23.00
2023-02-14T16:09:46.590Z,21.42
2023-02-14T16:12:32.092Z,17.73
2023-02-14T16:15:21.769Z,17.42
2023-02-14T16:17:53.251Z,16.23
2023-02-14T16:20:32.808Z,30.62
2023-02-14T16:23:21.499Z,31.27
2023-02-14T16:25:53.453Z,22.45
2023-02-14T16:28:24.443Z,22.80
2023-02-14T16:30:57.661Z,21.30
2023-02-14T16:33:31.481Z,18.23
2023-02-14T16:36:09.465Z,15.65
2023-02-14T16:38:46.388Z,13.85
2023-02-14T16:41:22.612Z,12.90
2023-02-14T16:43:53.463Z,15.08
2023-02-14T16:46:35.467Z,21.85
2023-02-14T16:49:06.262Z,22.62
2023-02-14T16:51:37.954Z,24.85
2023-02-14T16:54:11.092Z,25.37
2023-02-14T16:56:51.689Z,23.83
2023-02-14T16:59:22.566Z,20.68
2023-02-14T17:01:53.993Z,20.37
2023-02-14T17:04:24.629Z,20.52
2023-02-14T17:06:57.413Z,19.62
2023-02-14T17:09:33.132Z,19.35
2023-02-14T17:12:07.921Z,19.92
2023-02-14T17:14:39.999Z,19.57
2023-02-14T17:17:12.302Z,19.48
2023-02-14T17:19:42.837Z,25.37
2023-02-14T17:22:15.204Z,34.70
2023-02-14T17:24:46.980Z,33.35
2023-02-14T17:27:18.840Z,31.80
2023-02-14T17:29:51.005Z,29.27
2023-02-14T17:32:21.760Z,32.78
2023-02-14T17:34:52.625Z,33.23
2023-02-14T17:37:23.303Z,31.35
2023-02-14T17:39:54.714Z,32.15
2023-02-14T17:42:25.574Z,34.00
2023-02-14T17:44:56.323Z,32.75
2023-02-14T17:47:26.971Z,33.33
2023-02-14T17:49:58.405Z,34.43
2023-02-14T17:52:29.945Z,34.00
2023-02-14T17:55:00.517Z,36.28
2023-02-14T17:57:31.337Z,32.08
2023-02-14T18:00:02.303Z,33.38
2023-02-14T18:02:33.237Z,33.78
2023-02-14T18:05:04.101Z,36.73
2023-02-14T18:07:35.756Z,38.78
2023-02-14T18:10:08.298Z,40.03
2023-02-14T18:12:38.861Z,40.12
2023-02-14T18:15:10.302Z,45.12
2023-02-14T18:17:40.833Z,43.92
2023-02-14T18:20:12.216Z,46.28
2023-02-14T18:22:42.769Z,47.45
2023-02-14T18:25:13.454Z,49.88
2023-02-14T18:27:43.994Z,52.60
2023-02-14T18:30:15.490Z,55.03
2023-02-14T18:32:46.074Z,55.28
2023-02-14T18:35:18.271Z,56.08
2023-02-14T18:37:49.969Z,51.05
2023-02-14T18:40:20.937Z,50.03
2023-02-14T18:42:51.549Z,54.65
2023-02-14T18:45:22.727Z,71.90
2023-02-14T18:47:53.331Z,75.10
2023-02-14T18:50:23.908Z,62.17
2023-02-14T18:52:54.509Z,60.08
2023-02-14T18:55:25.668Z,55.05
2023-02-14T18:57:57.688Z,52.93
2023-02-14T19:00:29.817Z,52.53
2023-02-14T19:03:02.142Z,53.78
2023-02-14T19:05:33.862Z,60.23
2023-02-14T19:08:06.631Z,64.62
2023-02-14T19:10:38.970Z,66.28
2023-02-14T19:13:09.573Z,58.42
2023-02-14T19:15:40.095Z,68.87
2023-02-14T19:18:10.655Z,62.00
2023-02-14T19:20:41.234Z,60.60
2023-02-14T19:23:12.987Z,57.27
2023-02-14T19:25:44.800Z,54.40
2023-02-14T19:28:15.837Z,59.13
2023-02-14T19:30:46.506Z,57.53
2023-02-14T19:33:18.424Z,54.10
2023-02-14T19:35:50.362Z,51.50
2023-02-14T19:38:20.939Z,47.13
2023-02-14T19:40:51.506Z,43.65
2023-02-14T19:43:22.114Z,41.85
2023-02-14T19:45:53.238Z,40.08
2023-02-14T19:48:24.389Z,37.25
2023-02-14T19:50:55.009Z,33.48
2023-02-14T19:53:25.696Z,29.65
2023-02-14T19:55:56.575Z,25.85
2023-02-14T19:58:27.748Z,23.42
2023-02-14T20:01:01.508Z,22.07
2023-02-14T20:03:34.217Z,20.75
2023-02-14T20:06:06.217Z,18.95
2023-02-14T20:08:36.815Z,18.15
2023-02-14T20:11:07.987Z,18.60
2023-02-14T20:13:38.571Z,17.20
2023-02-14T20:16:11.784Z,16.85
2023-02-14T20:18:42.412Z,17.00
2023-02-14T20:21:18.366Z,16.02
2023-02-14T20:23:48.964Z,15.68
2023-02-14T20:26:21.151Z,15.15
2023-02-14T20:28:53.321Z,15.88
2023-02-14T20:31:24.074Z,15.88
2023-02-14T20:33:56.465Z,14.85
2023-02-14T20:36:27.447Z,15.50
2023-02-14T20:39:00.856Z,15.10
2023-02-14T20:41:34.088Z,14.75
2023-02-14T20:44:10.988Z,15.53
2023-02-14T20:46:41.542Z,14.70
2023-02-14T20:49:12.525Z,15.20
2023-02-14T20:51:46.181Z,15.40
2023-02-14T20:54:17.134Z,15.15
2023-02-14T20:56:50.915Z,14.58
2023-02-14T20:59:29.517Z,14.95
2023-02-14T21:02:00.698Z,14.40
2023-02-14T21:04:33.875Z,14.73
2023-02-14T21:07:07.891Z,15.53
2023-02-14T21:09:39.188Z,15.03
2023-02-14T21:12:11.367Z,14.50
2023-02-14T21:14:44.758Z,15.50
2023-02-14T21:17:20.040Z,16.25
2023-02-14T21:19:52.231Z,15.10
2023-02-14T21:22:24.372Z,14.98
2023-02-14T21:25:00.720Z,15.28
2023-02-14T21:27:34.936Z,14.87
2023-02-14T21:30:10.061Z,15.53
2023-02-14T21:32:43.721Z,15.38
2023-02-14T21:35:15.837Z,15.63
2023-02-14T21:37:48.366Z,15.23
2023-02-14T21:40:23.642Z,15.58
2023-02-14T21:43:00.388Z,17.07
2023-02-14T21:45:52.783Z,16.20
2023-02-14T21:48:43.058Z,16.85
2023-02-14T21:51:16.824Z,16.67
2023-02-14T21:53:50.927Z,16.87
2023-02-14T21:56:28.020Z,15.65
2023-02-14T21:59:02.132Z,15.55
2023-02-14T22:01:40.235Z,15.90
2023-02-14T22:04:13.352Z,16.00
2023-02-14T22:06:45.769Z,11.60
2023-02-14T22:09:20.433Z,16.12
2023-02-14T22:11:51.375Z,16.95
2023-02-14T22:14:24.933Z,16.73
2023-02-14T22:16:58.272Z,16.67
2023-02-14T22:19:32.134Z,17.02
2023-02-14T22:22:05.149Z,17.50
2023-02-14T22:24:37.450Z,17.23
2023-02-14T22:27:10.993Z,18.42
2023-02-14T22:29:44.112Z,17.52
2023-02-14T22:32:18.614Z,18.27
2023-02-14T22:34:54.100Z,18.50
2023-02-14T22:39:58.846Z,18.85
2023-02-14T22:42:30.881Z,17.80
2023-02-14T22:45:06.829Z,17.80
2023-02-14T22:47:40.229Z,18.52
2023-02-14T22:50:15.225Z,18.25
2023-02-14T22:52:46.396Z,18.12
2023-02-14T22:55:19.918Z,18.80
2023-02-14T22:57:52.178Z,17.77
2023-02-14T23:00:23.825Z,18.00
2023-02-14T23:02:56.873Z,18.32
2023-02-14T23:05:28.809Z,18.70
2023-02-14T23:08:03.352Z,19.25
2023-02-14T23:10:36.187Z,17.95
2023-02-14T23:13:27.505Z,18.20
2023-02-14T23:16:16.832Z,17.52
2023-02-14T23:19:11.632Z,17.35
2023-02-14T23:21:59.960Z,17.82
2023-02-14T23:24:32.987Z,18.27
2023-02-14T23:27:06.887Z,19.15
2023-02-14T23:29:39.621Z,20.85
2023-02-14T23:32:17.836Z,22.82
2023-02-14T23:34:52.887Z,22.85
2023-02-14T23:37:27.419Z,21.87
2023-02-14T23:40:02.353Z,20.05
2023-02-14T23:42:34.987Z,20.70
2023-02-14T23:45:27.038Z,21.95
2023-02-14T23:48:00.939Z,21.95
2023-02-14T23:50:33.466Z,24.10
2023-02-14T23:53:07.690Z,23.47
2023-02-14T23:55:40.659Z,24.32
2023-02-14T23:58:12.939Z,25.43
